sensor_id;sensor_type;location;lat;lon;timestamp;P1;durP1;ratioP1;P2;durP2;ratioP2
11990;SDS011;6055;52.522;13.446;2022-08-18T00:00:29;4.05;;;3.30;;
11990;SDS011;6055;52.522;13.446;2022-08-18T00:03:02;4.20;;;3.28;;
11990;SDS011;6055;52.522;13.446;2022-08-18T00:05:31;3.80;;;3.47;;
11990;SDS011;6055;52.522;13.446;2022-08-18T00:07:57;4.00;;;3.60;;
11990;SDS011;6055;52.522;13.446;2022-08-18T00:10:23;5.07;;;3.60;;
11990;SDS011;6055;52.522;13.446;2022-08-18T00:12:50;3.85;;;2.92;;
11990;SDS011;6055;52.522;13.446;2022-08-18T00:15:16;3.95;;;3.10;;
11990;SDS011;6055;52.522;13.446;2022-08-18T00:17:43;4.38;;;3.78;;
11990;SDS011;6055;52.522;13.446;2022-08-18T00:20:10;4.20;;;3.20;;
11990;SDS011;6055;52.522;13.446;2022-08-18T00:22:38;3.95;;;3.55;;
11990;SDS011;6055;52.522;13.446;2022-08-18T00:25:04;3.70;;;3.35;;
11990;SDS011;6055;52.522;13.446;2022-08-18T00:27:30;4.30;;;3.50;;
11990;SDS011;6055;52.522;13.446;2022-08-18T00:29:57;4.25;;;3.53;;
11990;SDS011;6055;52.522;13.446;2022-08-18T00:32:29;3.80;;;3.40;;
11990;SDS011;6055;52.522;13.446;2022-08-18T00:35:07;4.05;;;3.42;;
11990;SDS011;6055;52.522;13.446;2022-08-18T00:37:38;3.67;;;3.38;;
11990;SDS011;6055;52.522;13.446;2022-08-18T00:40:05;4.22;;;3.60;;
11990;SDS011;6055;52.522;13.446;2022-08-18T00:42:32;5.70;;;3.50;;
11990;SDS011;6055;52.522;13.446;2022-08-18T00:45:04;5.35;;;4.10;;
11990;SDS011;6055;52.522;13.446;2022-08-18T00:47:30;5.53;;;4.75;;
11990;SDS011;6055;52.522;13.446;2022-08-18T00:49:56;4.05;;;3.40;;
11990;SDS011;6055;52.522;13.446;2022-08-18T00:52:22;4.13;;;3.70;;
11990;SDS011;6055;52.522;13.446;2022-08-18T00:54:49;4.50;;;3.35;;
11990;SDS011;6055;52.522;13.446;2022-08-18T00:57:17;6.60;;;3.80;;
11990;SDS011;6055;52.522;13.446;2022-08-18T00:59:47;4.13;;;3.47;;
11990;SDS011;6055;52.522;13.446;2022-08-18T01:02:22;4.72;;;3.55;;
11990;SDS011;6055;52.522;13.446;2022-08-18T01:05:00;4.15;;;3.40;;
11990;SDS011;6055;52.522;13.446;2022-08-18T01:07:49;3.80;;;3.30;;
11990;SDS011;6055;52.522;13.446;2022-08-18T01:10:16;4.53;;;3.30;;
11990;SDS011;6055;52.522;13.446;2022-08-18T01:12:45;3.78;;;3.38;;
11990;SDS011;6055;52.522;13.446;2022-08-18T01:15:13;4.63;;;3.85;;
11990;SDS011;6055;52.522;13.446;2022-08-18T01:17:41;4.57;;;3.45;;
11990;SDS011;6055;52.522;13.446;2022-08-18T01:20:29;4.95;;;3.40;;
11990;SDS011;6055;52.522;13.446;2022-08-18T01:23:18;4.32;;;3.92;;
11990;SDS011;6055;52.522;13.446;2022-08-18T01:25:45;3.78;;;3.25;;
11990;SDS011;6055;52.522;13.446;2022-08-18T01:28:27;4.20;;;3.65;;
11990;SDS011;6055;52.522;13.446;2022-08-18T01:31:30;3.75;;;3.33;;
11990;SDS011;6055;52.522;13.446;2022-08-18T01:33:59;4.95;;;3.42;;
11990;SDS011;6055;52.522;13.446;2022-08-18T01:36:25;4.50;;;3.70;;
11990;SDS011;6055;52.522;13.446;2022-08-18T01:38:52;4.10;;;3.50;;
11990;SDS011;6055;52.522;13.446;2022-08-18T01:41:18;4.03;;;3.63;;
11990;SDS011;6055;52.522;13.446;2022-08-18T01:43:46;3.67;;;3.22;;
11990;SDS011;6055;52.522;13.446;2022-08-18T01:46:12;3.83;;;3.15;;
11990;SDS011;6055;52.522;13.446;2022-08-18T01:48:42;4.10;;;3.70;;
11990;SDS011;6055;52.522;13.446;2022-08-18T01:51:08;4.40;;;4.00;;
11990;SDS011;6055;52.522;13.446;2022-08-18T01:53:34;5.22;;;3.80;;
11990;SDS011;6055;52.522;13.446;2022-08-18T01:56:01;4.18;;;3.55;;
11990;SDS011;6055;52.522;13.446;2022-08-18T01:58:30;6.03;;;3.92;;
11990;SDS011;6055;52.522;13.446;2022-08-18T02:00:57;4.65;;;3.75;;
11990;SDS011;6055;52.522;13.446;2022-08-18T02:03:30;3.90;;;3.10;;
11990;SDS011;6055;52.522;13.446;2022-08-18T02:06:00;3.92;;;3.35;;
11990;SDS011;6055;52.522;13.446;2022-08-18T02:08:27;4.22;;;3.80;;
11990;SDS011;6055;52.522;13.446;2022-08-18T02:10:53;3.78;;;3.40;;
11990;SDS011;6055;52.522;13.446;2022-08-18T02:13:21;3.92;;;3.53;;
11990;SDS011;6055;52.522;13.446;2022-08-18T02:15:46;4.72;;;3.67;;
11990;SDS011;6055;52.522;13.446;2022-08-18T02:18:24;4.57;;;4.07;;
11990;SDS011;6055;52.522;13.446;2022-08-18T02:20:52;4.85;;;3.92;;
11990;SDS011;6055;52.522;13.446;2022-08-18T02:23:19;3.83;;;3.42;;
11990;SDS011;6055;52.522;13.446;2022-08-18T02:25:45;4.68;;;3.85;;
11990;SDS011;6055;52.522;13.446;2022-08-18T02:28:10;4.15;;;3.38;;
11990;SDS011;6055;52.522;13.446;2022-08-18T02:30:36;5.60;;;4.05;;
11990;SDS011;6055;52.522;13.446;2022-08-18T02:33:04;6.57;;;4.10;;
11990;SDS011;6055;52.522;13.446;2022-08-18T02:35:30;3.85;;;3.45;;
11990;SDS011;6055;52.522;13.446;2022-08-18T02:38:00;4.05;;;3.53;;
11990;SDS011;6055;52.522;13.446;2022-08-18T02:40:26;5.07;;;4.07;;
11990;SDS011;6055;52.522;13.446;2022-08-18T02:42:52;4.40;;;3.88;;
11990;SDS011;6055;52.522;13.446;2022-08-18T02:45:18;4.30;;;3.75;;
11990;SDS011;6055;52.522;13.446;2022-08-18T02:47:50;4.45;;;3.63;;
11990;SDS011;6055;52.522;13.446;2022-08-18T02:50:19;5.53;;;4.45;;
11990;SDS011;6055;52.522;13.446;2022-08-18T02:52:45;4.20;;;3.80;;
11990;SDS011;6055;52.522;13.446;2022-08-18T02:55:11;4.47;;;3.72;;
11990;SDS011;6055;52.522;13.446;2022-08-18T02:57:41;5.00;;;3.88;;
11990;SDS011;6055;52.522;13.446;2022-08-18T03:00:08;5.75;;;3.70;;
11990;SDS011;6055;52.522;13.446;2022-08-18T03:02:37;5.18;;;4.07;;
11990;SDS011;6055;52.522;13.446;2022-08-18T03:05:04;5.22;;;3.30;;
11990;SDS011;6055;52.522;13.446;2022-08-18T03:07:31;4.28;;;3.35;;
11990;SDS011;6055;52.522;13.446;2022-08-18T03:09:57;3.92;;;3.42;;
11990;SDS011;6055;52.522;13.446;2022-08-18T03:12:22;4.45;;;3.63;;
11990;SDS011;6055;52.522;13.446;2022-08-18T03:14:48;5.10;;;3.97;;
11990;SDS011;6055;52.522;13.446;2022-08-18T03:17:14;4.25;;;3.70;;
11990;SDS011;6055;52.522;13.446;2022-08-18T03:19:39;6.28;;;3.83;;
11990;SDS011;6055;52.522;13.446;2022-08-18T03:22:06;3.80;;;3.00;;
11990;SDS011;6055;52.522;13.446;2022-08-18T03:24:33;4.50;;;3.65;;
11990;SDS011;6055;52.522;13.446;2022-08-18T03:27:02;4.32;;;3.53;;
11990;SDS011;6055;52.522;13.446;2022-08-18T03:29:29;5.40;;;4.13;;
11990;SDS011;6055;52.522;13.446;2022-08-18T03:31:55;5.70;;;3.83;;
11990;SDS011;6055;52.522;13.446;2022-08-18T03:34:20;4.57;;;3.85;;
11990;SDS011;6055;52.522;13.446;2022-08-18T03:36:47;4.65;;;4.07;;
11990;SDS011;6055;52.522;13.446;2022-08-18T03:39:15;4.68;;;3.90;;
11990;SDS011;6055;52.522;13.446;2022-08-18T03:41:41;4.15;;;3.72;;
11990;SDS011;6055;52.522;13.446;2022-08-18T03:44:09;4.63;;;3.88;;
11990;SDS011;6055;52.522;13.446;2022-08-18T03:46:35;4.63;;;4.00;;
11990;SDS011;6055;52.522;13.446;2022-08-18T03:49:01;5.00;;;3.83;;
11990;SDS011;6055;52.522;13.446;2022-08-18T03:51:28;4.00;;;3.60;;
11990;SDS011;6055;52.522;13.446;2022-08-18T03:53:57;3.85;;;3.40;;
11990;SDS011;6055;52.522;13.446;2022-08-18T03:56:25;4.40;;;3.92;;
11990;SDS011;6055;52.522;13.446;2022-08-18T03:58:54;5.60;;;4.20;;
11990;SDS011;6055;52.522;13.446;2022-08-18T04:01:23;6.10;;;4.00;;
11990;SDS011;6055;52.522;13.446;2022-08-18T04:03:51;4.47;;;3.78;;
11990;SDS011;6055;52.522;13.446;2022-08-18T04:06:24;5.07;;;4.50;;
11990;SDS011;6055;52.522;13.446;2022-08-18T04:08:52;4.05;;;3.65;;
11990;SDS011;6055;52.522;13.446;2022-08-18T04:11:20;4.85;;;4.13;;
11990;SDS011;6055;52.522;13.446;2022-08-18T04:13:46;4.75;;;4.25;;
11990;SDS011;6055;52.522;13.446;2022-08-18T04:16:11;4.63;;;4.13;;
11990;SDS011;6055;52.522;13.446;2022-08-18T04:18:37;3.88;;;3.45;;
11990;SDS011;6055;52.522;13.446;2022-08-18T04:21:03;4.38;;;3.85;;
11990;SDS011;6055;52.522;13.446;2022-08-18T04:23:36;5.75;;;4.50;;
11990;SDS011;6055;52.522;13.446;2022-08-18T04:26:05;4.80;;;4.30;;
11990;SDS011;6055;52.522;13.446;2022-08-18T04:28:31;5.43;;;4.03;;
11990;SDS011;6055;52.522;13.446;2022-08-18T04:30:57;6.85;;;4.28;;
11990;SDS011;6055;52.522;13.446;2022-08-18T04:33:26;4.70;;;4.20;;
11990;SDS011;6055;52.522;13.446;2022-08-18T04:35:53;4.88;;;4.05;;
11990;SDS011;6055;52.522;13.446;2022-08-18T04:38:19;8.45;;;4.97;;
11990;SDS011;6055;52.522;13.446;2022-08-18T04:40:45;5.22;;;4.32;;
11990;SDS011;6055;52.522;13.446;2022-08-18T04:43:11;4.53;;;4.03;;
11990;SDS011;6055;52.522;13.446;2022-08-18T04:45:43;6.30;;;3.88;;
11990;SDS011;6055;52.522;13.446;2022-08-18T04:48:09;4.82;;;3.90;;
11990;SDS011;6055;52.522;13.446;2022-08-18T04:50:37;4.78;;;4.25;;
11990;SDS011;6055;52.522;13.446;2022-08-18T04:53:03;4.47;;;4.03;;
11990;SDS011;6055;52.522;13.446;2022-08-18T04:55:48;7.60;;;4.57;;
11990;SDS011;6055;52.522;13.446;2022-08-18T04:58:18;5.80;;;4.47;;
11990;SDS011;6055;52.522;13.446;2022-08-18T05:00:44;5.70;;;4.40;;
11990;SDS011;6055;52.522;13.446;2022-08-18T05:03:11;5.68;;;4.22;;
11990;SDS011;6055;52.522;13.446;2022-08-18T05:05:37;5.45;;;4.00;;
11990;SDS011;6055;52.522;13.446;2022-08-18T05:08:03;5.13;;;4.00;;
11990;SDS011;6055;52.522;13.446;2022-08-18T05:10:29;5.70;;;4.40;;
11990;SDS011;6055;52.522;13.446;2022-08-18T05:12:54;6.70;;;5.75;;
11990;SDS011;6055;52.522;13.446;2022-08-18T05:15:20;5.03;;;4.30;;
11990;SDS011;6055;52.522;13.446;2022-08-18T05:17:46;6.00;;;3.90;;
11990;SDS011;6055;52.522;13.446;2022-08-18T05:20:11;4.72;;;3.90;;
11990;SDS011;6055;52.522;13.446;2022-08-18T05:22:37;6.03;;;4.30;;
11990;SDS011;6055;52.522;13.446;2022-08-18T05:25:05;4.72;;;3.60;;
11990;SDS011;6055;52.522;13.446;2022-08-18T05:27:33;5.13;;;4.28;;
11990;SDS011;6055;52.522;13.446;2022-08-18T05:30:14;5.55;;;4.28;;
11990;SDS011;6055;52.522;13.446;2022-08-18T05:32:41;4.93;;;4.18;;
11990;SDS011;6055;52.522;13.446;2022-08-18T05:35:10;4.55;;;3.75;;
11990;SDS011;6055;52.522;13.446;2022-08-18T05:37:42;5.18;;;4.40;;
11990;SDS011;6055;52.522;13.446;2022-08-18T05:40:29;4.60;;;3.75;;
11990;SDS011;6055;52.522;13.446;2022-08-18T05:42:56;4.22;;;3.83;;
11990;SDS011;6055;52.522;13.446;2022-08-18T05:45:24;4.95;;;3.60;;
11990;SDS011;6055;52.522;13.446;2022-08-18T05:47:50;5.15;;;4.20;;
11990;SDS011;6055;52.522;13.446;2022-08-18T05:50:20;5.82;;;4.18;;
11990;SDS011;6055;52.522;13.446;2022-08-18T05:52:50;4.10;;;3.70;;
11990;SDS011;6055;52.522;13.446;2022-08-18T05:55:24;5.95;;;4.07;;
11990;SDS011;6055;52.522;13.446;2022-08-18T05:58:17;6.45;;;4.53;;
11990;SDS011;6055;52.522;13.446;2022-08-18T06:00:51;5.97;;;4.25;;
11990;SDS011;6055;52.522;13.446;2022-08-18T06:03:20;5.28;;;4.18;;
11990;SDS011;6055;52.522;13.446;2022-08-18T06:08:27;6.03;;;4.55;;
11990;SDS011;6055;52.522;13.446;2022-08-18T06:10:56;5.97;;;3.97;;
11990;SDS011;6055;52.522;13.446;2022-08-18T06:13:22;6.90;;;4.53;;
11990;SDS011;6055;52.522;13.446;2022-08-18T06:15:51;5.60;;;4.72;;
11990;SDS011;6055;52.522;13.446;2022-08-18T06:39:57;4.68;;;3.75;;
11990;SDS011;6055;52.522;13.446;2022-08-18T06:42:23;5.22;;;4.72;;
11990;SDS011;6055;52.522;13.446;2022-08-18T06:44:57;5.32;;;4.30;;
11990;SDS011;6055;52.522;13.446;2022-08-18T06:50:31;6.75;;;5.32;;
11990;SDS011;6055;52.522;13.446;2022-08-18T06:53:04;6.13;;;4.75;;
11990;SDS011;6055;52.522;13.446;2022-08-18T06:55:36;5.60;;;4.47;;
11990;SDS011;6055;52.522;13.446;2022-08-18T07:00:43;4.95;;;4.25;;
11990;SDS011;6055;52.522;13.446;2022-08-18T07:03:40;4.47;;;3.83;;
11990;SDS011;6055;52.522;13.446;2022-08-18T07:08:43;6.75;;;4.55;;
11990;SDS011;6055;52.522;13.446;2022-08-18T07:11:18;5.65;;;4.65;;
11990;SDS011;6055;52.522;13.446;2022-08-18T07:13:51;6.15;;;4.30;;
11990;SDS011;6055;52.522;13.446;2022-08-18T07:16:29;5.30;;;4.43;;
11990;SDS011;6055;52.522;13.446;2022-08-18T07:19:11;5.47;;;4.22;;
11990;SDS011;6055;52.522;13.446;2022-08-18T07:21:40;7.35;;;5.10;;
11990;SDS011;6055;52.522;13.446;2022-08-18T07:30:03;5.60;;;4.63;;
11990;SDS011;6055;52.522;13.446;2022-08-18T07:32:38;5.32;;;4.00;;
11990;SDS011;6055;52.522;13.446;2022-08-18T07:35:08;5.88;;;4.50;;
11990;SDS011;6055;52.522;13.446;2022-08-18T07:37:52;6.00;;;3.88;;
11990;SDS011;6055;52.522;13.446;2022-08-18T07:40:30;6.15;;;4.65;;
11990;SDS011;6055;52.522;13.446;2022-08-18T07:43:04;5.32;;;4.25;;
11990;SDS011;6055;52.522;13.446;2022-08-18T07:45:40;9.70;;;4.97;;
11990;SDS011;6055;52.522;13.446;2022-08-18T07:48:22;5.53;;;4.40;;
11990;SDS011;6055;52.522;13.446;2022-08-18T07:51:12;4.00;;;3.67;;
11990;SDS011;6055;52.522;13.446;2022-08-18T07:53:51;6.47;;;4.78;;
11990;SDS011;6055;52.522;13.446;2022-08-18T08:04:53;6.43;;;4.68;;
11990;SDS011;6055;52.522;13.446;2022-08-18T08:21:16;8.43;;;4.63;;
11990;SDS011;6055;52.522;13.446;2022-08-18T08:26:22;5.68;;;4.68;;
11990;SDS011;6055;52.522;13.446;2022-08-18T08:32:00;4.30;;;3.55;;
11990;SDS011;6055;52.522;13.446;2022-08-18T08:37:09;5.90;;;5.00;;
11990;SDS011;6055;52.522;13.446;2022-08-18T08:39:44;5.80;;;4.38;;
11990;SDS011;6055;52.522;13.446;2022-08-18T08:42:15;5.97;;;4.45;;
11990;SDS011;6055;52.522;13.446;2022-08-18T08:44:49;5.68;;;4.60;;
11990;SDS011;6055;52.522;13.446;2022-08-18T08:47:28;4.88;;;4.38;;
11990;SDS011;6055;52.522;13.446;2022-08-18T08:50:03;5.18;;;4.40;;
11990;SDS011;6055;52.522;13.446;2022-08-18T08:52:45;7.55;;;4.55;;
11990;SDS011;6055;52.522;13.446;2022-08-18T08:55:28;5.00;;;4.15;;
11990;SDS011;6055;52.522;13.446;2022-08-18T09:00:32;4.47;;;4.07;;
11990;SDS011;6055;52.522;13.446;2022-08-18T09:11:05;5.15;;;4.05;;
11990;SDS011;6055;52.522;13.446;2022-08-18T09:13:58;6.28;;;4.70;;
11990;SDS011;6055;52.522;13.446;2022-08-18T09:17:00;6.50;;;4.40;;
11990;SDS011;6055;52.522;13.446;2022-08-18T09:22:31;5.75;;;4.78;;
11990;SDS011;6055;52.522;13.446;2022-08-18T09:25:10;4.95;;;4.45;;
11990;SDS011;6055;52.522;13.446;2022-08-18T09:28:05;5.75;;;4.25;;
11990;SDS011;6055;52.522;13.446;2022-08-18T09:39:05;6.13;;;4.68;;
11990;SDS011;6055;52.522;13.446;2022-08-18T09:42:02;5.07;;;4.53;;
11990;SDS011;6055;52.522;13.446;2022-08-18T09:49:50;5.65;;;4.07;;
11990;SDS011;6055;52.522;13.446;2022-08-18T10:07:42;6.20;;;4.57;;
11990;SDS011;6055;52.522;13.446;2022-08-18T10:16:56;5.50;;;4.18;;
11990;SDS011;6055;52.522;13.446;2022-08-18T10:19:31;7.22;;;4.20;;
11990;SDS011;6055;52.522;13.446;2022-08-18T10:22:04;5.13;;;4.05;;
11990;SDS011;6055;52.522;13.446;2022-08-18T10:24:50;4.10;;;3.53;;
11990;SDS011;6055;52.522;13.446;2022-08-18T10:27:32;4.57;;;3.45;;
11990;SDS011;6055;52.522;13.446;2022-08-18T10:32:58;4.45;;;3.80;;
11990;SDS011;6055;52.522;13.446;2022-08-18T10:38:05;4.90;;;4.10;;
11990;SDS011;6055;52.522;13.446;2022-08-18T10:40:53;4.43;;;3.67;;
11990;SDS011;6055;52.522;13.446;2022-08-18T10:43:34;4.72;;;3.50;;
11990;SDS011;6055;52.522;13.446;2022-08-18T10:46:13;5.03;;;4.43;;
11990;SDS011;6055;52.522;13.446;2022-08-18T10:48:56;4.25;;;3.85;;
11990;SDS011;6055;52.522;13.446;2022-08-18T10:51:32;4.40;;;3.95;;
11990;SDS011;6055;52.522;13.446;2022-08-18T10:54:14;5.57;;;3.85;;
11990;SDS011;6055;52.522;13.446;2022-08-18T10:57:19;4.72;;;3.80;;
11990;SDS011;6055;52.522;13.446;2022-08-18T10:59:58;5.97;;;4.43;;
11990;SDS011;6055;52.522;13.446;2022-08-18T11:05:13;5.28;;;4.00;;
11990;SDS011;6055;52.522;13.446;2022-08-18T11:07:45;4.35;;;3.88;;
11990;SDS011;6055;52.522;13.446;2022-08-18T11:10:18;4.13;;;3.72;;
11990;SDS011;6055;52.522;13.446;2022-08-18T11:13:06;4.90;;;4.03;;
11990;SDS011;6055;52.522;13.446;2022-08-18T11:15:41;5.13;;;3.70;;
11990;SDS011;6055;52.522;13.446;2022-08-18T11:26:33;4.45;;;3.58;;
11990;SDS011;6055;52.522;13.446;2022-08-18T11:31:52;3.88;;;3.47;;
11990;SDS011;6055;52.522;13.446;2022-08-18T11:34:27;4.00;;;3.60;;
11990;SDS011;6055;52.522;13.446;2022-08-18T11:37:01;5.10;;;4.03;;
11990;SDS011;6055;52.522;13.446;2022-08-18T11:39:30;4.93;;;4.18;;
11990;SDS011;6055;52.522;13.446;2022-08-18T11:41:56;4.72;;;3.58;;
11990;SDS011;6055;52.522;13.446;2022-08-18T11:44:24;4.45;;;3.55;;
11990;SDS011;6055;52.522;13.446;2022-08-18T11:46:55;3.92;;;3.17;;
11990;SDS011;6055;52.522;13.446;2022-08-18T11:49:43;3.45;;;3.15;;
11990;SDS011;6055;52.522;13.446;2022-08-18T11:52:21;3.53;;;3.22;;
11990;SDS011;6055;52.522;13.446;2022-08-18T11:54:49;4.10;;;3.58;;
11990;SDS011;6055;52.522;13.446;2022-08-18T12:03:04;3.40;;;3.10;;
11990;SDS011;6055;52.522;13.446;2022-08-18T12:05:44;3.65;;;3.33;;
11990;SDS011;6055;52.522;13.446;2022-08-18T12:08:22;4.28;;;3.65;;
11990;SDS011;6055;52.522;13.446;2022-08-18T12:11:03;3.55;;;3.25;;
11990;SDS011;6055;52.522;13.446;2022-08-18T12:13:43;3.17;;;2.88;;
11990;SDS011;6055;52.522;13.446;2022-08-18T12:16:13;3.42;;;2.72;;
11990;SDS011;6055;52.522;13.446;2022-08-18T12:18:41;3.40;;;2.72;;
11990;SDS011;6055;52.522;13.446;2022-08-18T12:21:08;4.40;;;3.17;;
11990;SDS011;6055;52.522;13.446;2022-08-18T12:23:34;3.20;;;2.90;;
11990;SDS011;6055;52.522;13.446;2022-08-18T12:26:01;3.53;;;2.92;;
11990;SDS011;6055;52.522;13.446;2022-08-18T12:28:26;3.10;;;2.80;;
11990;SDS011;6055;52.522;13.446;2022-08-18T12:30:52;3.28;;;2.88;;
11990;SDS011;6055;52.522;13.446;2022-08-18T12:33:18;3.95;;;3.03;;
11990;SDS011;6055;52.522;13.446;2022-08-18T12:35:43;3.22;;;2.92;;
11990;SDS011;6055;52.522;13.446;2022-08-18T12:38:09;3.10;;;2.80;;
11990;SDS011;6055;52.522;13.446;2022-08-18T12:40:36;3.35;;;3.05;;
11990;SDS011;6055;52.522;13.446;2022-08-18T12:43:02;3.58;;;3.03;;
11990;SDS011;6055;52.522;13.446;2022-08-18T12:45:27;3.08;;;2.83;;
11990;SDS011;6055;52.522;13.446;2022-08-18T12:47:54;4.15;;;3.08;;
11990;SDS011;6055;52.522;13.446;2022-08-18T12:50:20;4.38;;;3.47;;
11990;SDS011;6055;52.522;13.446;2022-08-18T12:52:45;4.68;;;3.40;;
11990;SDS011;6055;52.522;13.446;2022-08-18T12:55:11;3.20;;;2.75;;
11990;SDS011;6055;52.522;13.446;2022-08-18T12:57:37;4.13;;;2.75;;
11990;SDS011;6055;52.522;13.446;2022-08-18T13:00:03;2.90;;;2.60;;
11990;SDS011;6055;52.522;13.446;2022-08-18T13:02:31;2.95;;;2.65;;
11990;SDS011;6055;52.522;13.446;2022-08-18T13:04:56;3.42;;;2.80;;
11990;SDS011;6055;52.522;13.446;2022-08-18T13:07:22;3.03;;;2.50;;
11990;SDS011;6055;52.522;13.446;2022-08-18T13:09:47;3.50;;;3.20;;
11990;SDS011;6055;52.522;13.446;2022-08-18T13:12:13;3.50;;;3.17;;
11990;SDS011;6055;52.522;13.446;2022-08-18T13:14:39;3.70;;;3.40;;
11990;SDS011;6055;52.522;13.446;2022-08-18T13:17:05;3.95;;;3.33;;
11990;SDS011;6055;52.522;13.446;2022-08-18T13:19:30;4.75;;;3.90;;
11990;SDS011;6055;52.522;13.446;2022-08-18T13:21:56;3.70;;;3.28;;
11990;SDS011;6055;52.522;13.446;2022-08-18T13:24:22;5.05;;;3.67;;
11990;SDS011;6055;52.522;13.446;2022-08-18T13:26:47;4.07;;;3.50;;
11990;SDS011;6055;52.522;13.446;2022-08-18T13:29:14;4.88;;;3.75;;
11990;SDS011;6055;52.522;13.446;2022-08-18T13:31:41;3.80;;;3.47;;
11990;SDS011;6055;52.522;13.446;2022-08-18T13:34:07;3.53;;;3.22;;
11990;SDS011;6055;52.522;13.446;2022-08-18T13:36:33;4.05;;;3.38;;
11990;SDS011;6055;52.522;13.446;2022-08-18T13:39:13;4.13;;;3.60;;
11990;SDS011;6055;52.522;13.446;2022-08-18T13:41:40;3.70;;;3.40;;
11990;SDS011;6055;52.522;13.446;2022-08-18T13:44:07;4.30;;;3.58;;
11990;SDS011;6055;52.522;13.446;2022-08-18T13:46:33;4.32;;;3.60;;
11990;SDS011;6055;52.522;13.446;2022-08-18T13:49:09;4.25;;;3.50;;
11990;SDS011;6055;52.522;13.446;2022-08-18T13:51:42;4.53;;;3.50;;
11990;SDS011;6055;52.522;13.446;2022-08-18T13:54:09;3.92;;;3.53;;
11990;SDS011;6055;52.522;13.446;2022-08-18T13:56:41;4.18;;;3.63;;
11990;SDS011;6055;52.522;13.446;2022-08-18T13:59:06;3.85;;;3.50;;
11990;SDS011;6055;52.522;13.446;2022-08-18T14:01:32;3.92;;;3.45;;
11990;SDS011;6055;52.522;13.446;2022-08-18T14:03:57;4.15;;;3.70;;
11990;SDS011;6055;52.522;13.446;2022-08-18T14:06:23;5.20;;;3.78;;
11990;SDS011;6055;52.522;13.446;2022-08-18T14:08:51;3.63;;;3.28;;
11990;SDS011;6055;52.522;13.446;2022-08-18T14:11:17;4.28;;;3.47;;
11990;SDS011;6055;52.522;13.446;2022-08-18T14:13:46;3.95;;;3.53;;
11990;SDS011;6055;52.522;13.446;2022-08-18T14:16:11;6.50;;;3.67;;
11990;SDS011;6055;52.522;13.446;2022-08-18T14:18:37;4.00;;;3.40;;
11990;SDS011;6055;52.522;13.446;2022-08-18T14:21:02;4.35;;;3.90;;
11990;SDS011;6055;52.522;13.446;2022-08-18T14:23:46;4.25;;;3.83;;
11990;SDS011;6055;52.522;13.446;2022-08-18T14:26:32;3.88;;;3.53;;
11990;SDS011;6055;52.522;13.446;2022-08-18T14:29:13;3.97;;;3.35;;
11990;SDS011;6055;52.522;13.446;2022-08-18T14:31:40;4.00;;;3.33;;
11990;SDS011;6055;52.522;13.446;2022-08-18T14:34:06;3.85;;;3.28;;
11990;SDS011;6055;52.522;13.446;2022-08-18T14:36:32;3.72;;;3.38;;
11990;SDS011;6055;52.522;13.446;2022-08-18T14:38:58;5.07;;;3.42;;
11990;SDS011;6055;52.522;13.446;2022-08-18T14:41:24;3.67;;;3.25;;
11990;SDS011;6055;52.522;13.446;2022-08-18T14:43:50;4.85;;;3.60;;
11990;SDS011;6055;52.522;13.446;2022-08-18T14:46:16;4.15;;;3.10;;
11990;SDS011;6055;52.522;13.446;2022-08-18T14:48:42;5.82;;;3.53;;
11990;SDS011;6055;52.522;13.446;2022-08-18T14:51:08;3.30;;;3.00;;
11990;SDS011;6055;52.522;13.446;2022-08-18T14:53:34;4.93;;;4.05;;
11990;SDS011;6055;52.522;13.446;2022-08-18T14:56:01;3.53;;;3.00;;
11990;SDS011;6055;52.522;13.446;2022-08-18T14:58:29;3.63;;;3.00;;
11990;SDS011;6055;52.522;13.446;2022-08-18T15:00:56;3.67;;;3.05;;
11990;SDS011;6055;52.522;13.446;2022-08-18T15:03:27;2.60;;;2.40;;
11990;SDS011;6055;52.522;13.446;2022-08-18T15:05:55;3.47;;;2.78;;
11990;SDS011;6055;52.522;13.446;2022-08-18T15:08:21;3.60;;;3.22;;
11990;SDS011;6055;52.522;13.446;2022-08-18T15:10:46;6.00;;;3.20;;
11990;SDS011;6055;52.522;13.446;2022-08-18T15:13:13;3.10;;;2.70;;
11990;SDS011;6055;52.522;13.446;2022-08-18T15:15:39;3.65;;;3.33;;
11990;SDS011;6055;52.522;13.446;2022-08-18T15:18:05;4.20;;;2.97;;
11990;SDS011;6055;52.522;13.446;2022-08-18T15:20:31;4.72;;;3.03;;
11990;SDS011;6055;52.522;13.446;2022-08-18T15:22:58;3.42;;;3.03;;
11990;SDS011;6055;52.522;13.446;2022-08-18T15:25:44;4.15;;;3.20;;
11990;SDS011;6055;52.522;13.446;2022-08-18T15:28:11;3.75;;;3.28;;
11990;SDS011;6055;52.522;13.446;2022-08-18T15:30:48;3.35;;;3.05;;
11990;SDS011;6055;52.522;13.446;2022-08-18T15:33:15;4.70;;;3.10;;
11990;SDS011;6055;52.522;13.446;2022-08-18T15:35:42;4.18;;;3.25;;
11990;SDS011;6055;52.522;13.446;2022-08-18T15:38:09;3.50;;;3.05;;
11990;SDS011;6055;52.522;13.446;2022-08-18T15:40:39;3.97;;;3.22;;
11990;SDS011;6055;52.522;13.446;2022-08-18T15:43:12;4.15;;;2.97;;
11990;SDS011;6055;52.522;13.446;2022-08-18T15:45:39;3.45;;;3.05;;
11990;SDS011;6055;52.522;13.446;2022-08-18T15:48:08;3.33;;;3.03;;
11990;SDS011;6055;52.522;13.446;2022-08-18T15:50:34;3.03;;;2.72;;
11990;SDS011;6055;52.522;13.446;2022-08-18T15:53:01;4.47;;;2.70;;
11990;SDS011;6055;52.522;13.446;2022-08-18T15:55:30;3.17;;;2.88;;
11990;SDS011;6055;52.522;13.446;2022-08-18T15:57:59;3.15;;;2.85;;
11990;SDS011;6055;52.522;13.446;2022-08-18T16:00:26;3.75;;;3.28;;
11990;SDS011;6055;52.522;13.446;2022-08-18T16:02:57;3.13;;;2.67;;
11990;SDS011;6055;52.522;13.446;2022-08-18T16:05:26;3.38;;;3.00;;
11990;SDS011;6055;52.522;13.446;2022-08-18T16:07:54;3.20;;;2.88;;
11990;SDS011;6055;52.522;13.446;2022-08-18T16:10:21;4.70;;;2.53;;
11990;SDS011;6055;52.522;13.446;2022-08-18T16:12:48;3.33;;;2.72;;
11990;SDS011;6055;52.522;13.446;2022-08-18T16:15:16;2.55;;;2.33;;
11990;SDS011;6055;52.522;13.446;2022-08-18T16:17:44;3.53;;;3.22;;
11990;SDS011;6055;52.522;13.446;2022-08-18T16:20:11;3.88;;;3.47;;
11990;SDS011;6055;52.522;13.446;2022-08-18T16:22:37;3.88;;;3.15;;
11990;SDS011;6055;52.522;13.446;2022-08-18T16:25:03;3.85;;;3.15;;
11990;SDS011;6055;52.522;13.446;2022-08-18T16:27:31;4.32;;;3.08;;
11990;SDS011;6055;52.522;13.446;2022-08-18T16:29:58;3.55;;;3.20;;
11990;SDS011;6055;52.522;13.446;2022-08-18T16:32:24;3.78;;;2.85;;
11990;SDS011;6055;52.522;13.446;2022-08-18T16:34:50;4.82;;;3.05;;
11990;SDS011;6055;52.522;13.446;2022-08-18T16:37:16;3.30;;;2.97;;
11990;SDS011;6055;52.522;13.446;2022-08-18T16:39:42;3.75;;;3.08;;
11990;SDS011;6055;52.522;13.446;2022-08-18T16:42:07;3.78;;;3.30;;
11990;SDS011;6055;52.522;13.446;2022-08-18T16:44:34;4.18;;;3.38;;
11990;SDS011;6055;52.522;13.446;2022-08-18T16:47:00;4.82;;;3.47;;
11990;SDS011;6055;52.522;13.446;2022-08-18T16:49:28;6.88;;;4.63;;
11990;SDS011;6055;52.522;13.446;2022-08-18T16:51:54;9.02;;;4.68;;
11990;SDS011;6055;52.522;13.446;2022-08-18T16:54:20;4.72;;;3.90;;
11990;SDS011;6055;52.522;13.446;2022-08-18T16:56:46;5.78;;;3.42;;
11990;SDS011;6055;52.522;13.446;2022-08-18T16:59:11;5.05;;;3.40;;
11990;SDS011;6055;52.522;13.446;2022-08-18T17:01:55;5.75;;;3.83;;
11990;SDS011;6055;52.522;13.446;2022-08-18T17:04:40;5.07;;;3.83;;
11990;SDS011;6055;52.522;13.446;2022-08-18T17:07:05;3.72;;;3.28;;
11990;SDS011;6055;52.522;13.446;2022-08-18T17:09:32;5.93;;;4.40;;
11990;SDS011;6055;52.522;13.446;2022-08-18T17:11:58;6.63;;;4.10;;
11990;SDS011;6055;52.522;13.446;2022-08-18T17:14:26;4.70;;;4.03;;
11990;SDS011;6055;52.522;13.446;2022-08-18T17:16:53;3.97;;;3.58;;
11990;SDS011;6055;52.522;13.446;2022-08-18T17:19:21;4.97;;;4.00;;
11990;SDS011;6055;52.522;13.446;2022-08-18T17:21:48;4.85;;;4.32;;
11990;SDS011;6055;52.522;13.446;2022-08-18T17:24:14;6.03;;;3.92;;
11990;SDS011;6055;52.522;13.446;2022-08-18T17:29:29;3.83;;;3.50;;
11990;SDS011;6055;52.522;13.446;2022-08-18T17:32:03;3.70;;;3.33;;